EGNVEGLC

Guest
Details From EGNV - Durham Tees Valley
To EGLC - London City
Flight Number -
Tags generated
Created
Modified
Stats Distance 188 nm / 349 km
Max Altitude 23,000 ft / 7,010 m
Waypoints 3
Social Downloads 0
Likes 0
Share VATSIM

Download

Looking for another format? Having issues loading an existing format? Contact us
Advertisement - Login to hide

Notes

Basic altitude profile: - Ascent Rate: 2500ft/min - Ascent Speed: 250kts - Cruise Altitude: 35000ft - Cruise Speed: 420kts - Descent Rate: 1500ft/min - Descent Speed: 250kts Options: - Use NATs: yes - Use PACOTS: yes - Use low airways: yes - Use high airways: yes

Route

EGNV NAPEX EGLC

ID Type Via Altitude Latitude Longitude Leg Dist Tot Dist Heading (true) Name
O EGNV APT - 0 ft / 0 m 54.50919˚ -1.42943˚ - 0 nm - Durham Tees Valley
NAPEX FIX - 23,000 ft / 7,010 m 53.20639˚ -0.86111˚ 80 nm 80 nm 165° / 166° -
O EGLC APT - 0 ft / 0 m 51.50523˚ 0.05518˚ 107 nm 188 nm 161° / 162° London City

Altitude Profile

Advertisement - Login to hide

Weather


0- 5 10 15 20 25 30 35+ Temperature / ° C

Clouds and Precipitation
Forecast for 2017-12-19 00:00 UTC. Updated an hour ago

Ground ~20,000 ft ~40,000 ft Winds

EGNV

Details ICAO EGNV (MME)
Name Durham Tees Valley
Region United Kingdom
Timezone Europe/London (UTC+0.0)
Stats Elevation 120 ft / 37 m (AMSL)
Location 54.509191° -1.429433°
Runways 1
Magnetic Variation 1.298° W

METAR

EGNV 182150Z 22003KT CAVOK 01/01 Q1029

Decode

TAF

Not found

Departure Runways

ID Width Length Bearing (true) Bearing (mag) Surface Threshold Offset Overrun Length
05 148 ft / 45 m 7,501 ft / 2,286 m 47.37° 48.67° Asphalt 0 ft / 0 m 400 ft / 122 m
23 148 ft / 45 m 7,501 ft / 2,286 m 227.39° 228.69° Asphalt 0 ft / 0 m 0 ft / 0 m

EGLC

Details ICAO EGLC (LCY)
Name London City
Region United Kingdom
Timezone Europe/London (UTC+0.0)
Stats Elevation 19 ft / 6 m (AMSL)
Location 51.505231° 0.055175°
Runways 1
Magnetic Variation 0.383° W

METAR

EGLC 182220Z AUTO 23005KT 7000 NCD 03/02 Q1034

Decode

TAF

Not found

Destination Runways

ID Width Length Bearing (true) Bearing (mag) Surface Threshold Offset Overrun Length
09 98 ft / 30 m 4,931 ft / 1,503 m 92.89° 93.27° Concrete 322 ft / 98 m 164 ft / 50 m
27 98 ft / 30 m 4,931 ft / 1,503 m 272.91° 273.29° Concrete 243 ft / 74 m 279 ft / 85 m

Approach Navaids

Runway Type Ident Frequency Range Bearing (true) Bearing (mag) Slope Elevation
09 Localiser ILST 111.15 MHz 18 nm / 33 km 92.91° 93.29° - 19 ft / 6 m (AMSL)
09 Glidescope ILST 111.15 MHz 10 nm / 19 km 92.90° 93.29° 5.05° 35 ft / 11 m (AMSL)
09 DME ILST 111.15 MHz 18 nm / 33 km - - - 48 ft / 15 m (AMSL)
27 Localiser ILSR 111.15 MHz 18 nm / 33 km 272.89° 273.27° - 19 ft / 6 m (AMSL)
27 Glidescope ILSR 111.15 MHz 10 nm / 19 km 272.90° 273.29° 5.50° 35 ft / 11 m (AMSL)
27 DME ILSR 111.15 MHz 18 nm / 33 km - - - 48 ft / 15 m (AMSL)